Time;durP1;ratioP1;P1;durP2;ratioP2;P2;SDS_P1;SDS_P2;PMS_P1;PMS_P2;Temp;Humidity;BMP_temperature;BMP_pressure;BME280_temperature;BME280_humidity;BME280_pressure;Samples;Min_cycle;Max_cycle;Signal;HPM_P1;HPM_P2
2022/07/08 00:00:49;;;;;;;;;3.00;3.00;;;;;;;;4894832;29;45421;-75
2022/07/08 00:03:14;;;;;;;;;3.33;3.33;;;;;;;;4880771;29;45856;-75
2022/07/08 00:05:39;;;;;;;;;3.33;3.33;;;;;;;;4886007;28;45474;-76
2022/07/08 00:08:05;;;;;;;;;5.67;4.00;;;;;;;;4891612;29;45417;-75
2022/07/08 00:10:30;;;;;;;;;2.00;2.00;;;;;;;;4890641;28;45502;-75
2022/07/08 00:12:55;;;;;;;;;3.67;3.67;;;;;;;;4882783;29;46219;-76
2022/07/08 00:15:21;;;;;;;;;4.67;3.33;;;;;;;;4895419;28;45427;-76
2022/07/08 00:17:46;;;;;;;;;3.00;3.00;;;;;;;;4878591;29;45493;-75
2022/07/08 00:20:12;;;;;;;;;3.33;3.00;;;;;;;;4898778;28;45621;-76
2022/07/08 00:22:37;;;;;;;;;3.33;3.33;;;;;;;;4882280;29;46140;-76
2022/07/08 00:25:03;;;;;;;;;1.00;1.00;;;;;;;;4903312;28;45284;-76
2022/07/08 00:27:28;;;;;;;;;4.33;3.33;;;;;;;;4883958;28;45385;-76
2022/07/08 00:29:53;;;;;;;;;4.00;4.00;;;;;;;;4884708;29;45360;-75
2022/07/08 00:32:18;;;;;;;;;3.00;3.00;;;;;;;;4876305;29;46532;-76
2022/07/08 00:34:44;;;;;;;;;6.00;3.00;;;;;;;;4888193;29;45260;-75
2022/07/08 00:37:09;;;;;;;;;4.00;3.00;;;;;;;;4880657;29;45549;-76
2022/07/08 00:39:34;;;;;;;;;4.67;2.67;;;;;;;;4893347;28;45465;-76
2022/07/08 00:41:59;;;;;;;;;7.00;3.33;;;;;;;;4875279;29;45234;-75
2022/07/08 00:44:25;;;;;;;;;3.00;3.00;;;;;;;;4893401;29;45215;-76
2022/07/08 00:46:50;;;;;;;;;4.67;3.00;;;;;;;;4886874;28;45458;-75
2022/07/08 00:49:15;;;;;;;;;4.33;3.00;;;;;;;;4894028;28;45395;-76
2022/07/08 00:51:42;;;;;;;;;3.00;3.00;;;;;;;;4882670;28;45551;-76
2022/07/08 00:54:07;;;;;;;;;3.00;3.00;;;;;;;;4895038;29;45429;-75
2022/07/08 00:56:32;;;;;;;;;4.33;3.00;;;;;;;;4883060;29;45484;-76
2022/07/08 00:58:58;;;;;;;;;5.00;2.00;;;;;;;;4895827;29;45381;-76
2022/07/08 01:01:23;;;;;;;;;3.00;3.00;;;;;;;;4886485;28;46769;-75
2022/07/08 01:03:49;;;;;;;;;5.67;3.00;;;;;;;;4891529;29;45246;-76
2022/07/08 01:06:14;;;;;;;;;4.00;3.00;;;;;;;;4879616;29;45403;-76
2022/07/08 01:08:40;;;;;;;;;5.00;3.67;;;;;;;;4884640;29;45530;-75
2022/07/08 01:11:06;;;;;;;;;6.00;4.00;;;;;;;;4881116;29;46714;-75
2022/07/08 01:13:32;;;;;;;;;7.67;3.00;;;;;;;;4892820;29;45454;-75
2022/07/08 01:15:57;;;;;;;;;2.67;2.67;;;;;;;;4885553;29;45357;-76
2022/07/08 01:18:26;;;;;;;;;2.00;2.00;;;;;;;;4889388;28;45265;-76
2022/07/08 01:20:51;;;;;;;;;3.67;2.67;;;;;;;;4892149;28;46553;-76
2022/07/08 01:23:16;;;;;;;;;5.67;2.00;;;;;;;;4891148;29;45192;-76
2022/07/08 01:25:42;;;;;;;;;6.67;3.00;;;;;;;;4891014;29;45729;-76
2022/07/08 01:28:07;;;;;;;;;4.00;2.33;;;;;;;;4893322;29;45221;-75
2022/07/08 01:30:32;;;;;;;;;2.67;2.33;;;;;;;;4885026;29;46795;-76
2022/07/08 01:32:57;;;;;;;;;2.00;2.00;;;;;;;;4877872;28;45243;-76
2022/07/08 01:35:23;;;;;;;;;4.00;2.67;;;;;;;;4883472;29;46031;-76
2022/07/08 01:37:48;;;;;;;;;4.67;3.00;;;;;;;;4871369;29;45195;-76
2022/07/08 01:40:13;;;;;;;;;4.33;2.00;;;;;;;;4878310;29;46574;-76
2022/07/08 01:42:38;;;;;;;;;6.00;3.33;;;;;;;;4881256;29;45975;-76
2022/07/08 01:45:04;;;;;;;;;2.00;2.00;;;;;;;;4891660;29;45502;-76
2022/07/08 01:47:29;;;;;;;;;2.67;1.00;;;;;;;;4886216;29;46298;-76
2022/07/08 01:49:54;;;;;;;;;1.33;1.33;;;;;;;;4895052;29;45442;-76
2022/07/08 01:52:19;;;;;;;;;2.67;2.67;;;;;;;;4879482;28;45395;-76
2022/07/08 01:54:45;;;;;;;;;2.00;2.00;;;;;;;;4892496;29;45286;-77
2022/07/08 01:57:18;;;;;;;;;2.00;2.00;;;;;;;;4886003;29;45423;-75
2022/07/08 01:59:44;;;;;;;;;3.67;2.67;;;;;;;;4890227;29;45523;-76
2022/07/08 02:02:10;;;;;;;;;2.00;2.00;;;;;;;;4884138;29;45534;-76
2022/07/08 02:04:36;;;;;;;;;3.67;2.00;;;;;;;;4885216;28;45515;-76
2022/07/08 02:07:01;;;;;;;;;2.00;2.00;;;;;;;;4880317;29;45335;-76
2022/07/08 02:09:27;;;;;;;;;4.00;2.67;;;;;;;;4886745;29;46599;-76
2022/07/08 02:14:36;;;;;;;;;3.00;3.00;;;;;;;;4890097;29;45464;-75
2022/07/08 02:17:01;;;;;;;;;4.00;3.00;;;;;;;;4887601;29;45489;-76
2022/07/08 02:19:26;;;;;;;;;3.00;2.67;;;;;;;;4898222;29;45618;-76
2022/07/08 02:21:52;;;;;;;;;2.00;2.00;;;;;;;;4891127;28;45231;-76
2022/07/08 02:24:17;;;;;;;;;8.00;2.00;;;;;;;;4893846;29;45499;-76
2022/07/08 02:26:42;;;;;;;;;4.33;2.00;;;;;;;;4891311;29;46439;-76
2022/07/08 02:29:08;;;;;;;;;2.67;1.00;;;;;;;;4894174;29;46606;-75
2022/07/08 02:31:34;;;;;;;;;5.00;4.00;;;;;;;;4881939;29;45696;-75
2022/07/08 02:33:59;;;;;;;;;1.00;1.00;;;;;;;;4883465;29;45284;-75
2022/07/08 02:36:24;;;;;;;;;5.00;3.00;;;;;;;;4879066;29;45246;-75
2022/07/08 02:38:49;;;;;;;;;3.00;2.00;;;;;;;;4873766;29;46613;-75
2022/07/08 02:41:14;;;;;;;;;3.67;3.67;;;;;;;;4879922;28;45150;-74
2022/07/08 02:43:40;;;;;;;;;4.00;3.00;;;;;;;;4885940;29;45321;-74
2022/07/08 02:46:05;;;;;;;;;3.00;1.33;;;;;;;;4886461;28;45816;-74
2022/07/08 02:48:30;;;;;;;;;4.67;2.00;;;;;;;;4886191;29;46148;-74
2022/07/08 02:50:55;;;;;;;;;3.00;3.00;;;;;;;;4888618;28;45208;-73
2022/07/08 02:53:21;;;;;;;;;4.33;3.67;;;;;;;;4893286;29;45211;-73
2022/07/08 02:55:46;;;;;;;;;2.67;2.00;;;;;;;;4896796;28;45594;-73
2022/07/08 02:58:11;;;;;;;;;2.00;2.00;;;;;;;;4898099;29;46744;-73
2022/07/08 03:00:36;;;;;;;;;3.00;3.00;;;;;;;;4896574;28;45210;-74
2022/07/08 03:03:02;;;;;;;;;4.00;3.00;;;;;;;;4878408;29;45194;-73
2022/07/08 03:05:27;;;;;;;;;5.00;3.00;;;;;;;;4892067;29;46079;-73
2022/07/08 03:07:52;;;;;;;;;2.67;2.67;;;;;;;;4884518;29;45412;-73
2022/07/08 03:10:17;;;;;;;;;3.67;2.00;;;;;;;;4900543;28;45443;-75
2022/07/08 03:12:42;;;;;;;;;4.00;3.00;;;;;;;;4883417;29;45463;-75
2022/07/08 03:15:08;;;;;;;;;2.67;2.67;;;;;;;;4904437;28;45249;-74
2022/07/08 03:17:33;;;;;;;;;4.00;3.00;;;;;;;;4871736;28;47181;-74
2022/07/08 03:19:59;;;;;;;;;5.33;4.67;;;;;;;;4888159;28;45232;-74
2022/07/08 03:22:24;;;;;;;;;2.67;2.67;;;;;;;;4876225;29;45531;-74
2022/07/08 03:24:49;;;;;;;;;5.00;4.00;;;;;;;;4892147;28;45423;-74
2022/07/08 03:27:14;;;;;;;;;6.00;3.00;;;;;;;;4875854;29;45620;-74
2022/07/08 03:29:39;;;;;;;;;1.00;1.00;;;;;;;;4886135;29;45343;-74
2022/07/08 03:32:05;;;;;;;;;2.67;2.00;;;;;;;;4893361;28;45334;-74
2022/07/08 03:34:30;;;;;;;;;3.33;3.00;;;;;;;;4890821;29;45574;-74
2022/07/08 03:36:55;;;;;;;;;2.00;2.00;;;;;;;;4881744;28;45727;-74
2022/07/08 03:39:20;;;;;;;;;4.67;3.00;;;;;;;;4891238;29;45431;-74
2022/07/08 03:41:46;;;;;;;;;4.00;2.00;;;;;;;;4890584;29;45348;-74
2022/07/08 03:44:11;;;;;;;;;2.67;2.00;;;;;;;;4895014;28;46058;-74
2022/07/08 03:46:36;;;;;;;;;5.00;3.00;;;;;;;;4886235;28;45582;-73
2022/07/08 03:49:02;;;;;;;;;3.67;3.33;;;;;;;;4892655;29;45446;-73
2022/07/08 03:51:27;;;;;;;;;6.00;3.00;;;;;;;;4879455;29;45461;-74
2022/07/08 03:53:52;;;;;;;;;2.00;2.00;;;;;;;;4892569;29;45391;-74
2022/07/08 03:56:17;;;;;;;;;2.67;2.00;;;;;;;;4888227;28;46497;-73
2022/07/08 03:58:43;;;;;;;;;3.67;3.67;;;;;;;;4891643;29;45377;-74
2022/07/08 04:01:08;;;;;;;;;3.00;3.00;;;;;;;;4888651;28;45450;-74
2022/07/08 04:03:33;;;;;;;;;4.33;4.00;;;;;;;;4888633;29;47225;-73
2022/07/08 04:05:58;;;;;;;;;3.33;3.33;;;;;;;;4881040;29;45467;-72
2022/07/08 04:08:24;;;;;;;;;3.67;3.67;;;;;;;;4881127;29;45480;-74
2022/07/08 04:10:49;;;;;;;;;3.33;3.33;;;;;;;;4884628;29;45403;-73
2022/07/08 04:13:14;;;;;;;;;4.00;4.00;;;;;;;;4884064;29;45487;-73
2022/07/08 04:15:40;;;;;;;;;4.33;2.00;;;;;;;;4895827;29;45277;-73
2022/07/08 04:18:05;;;;;;;;;5.00;3.67;;;;;;;;4886363;29;45438;-73
2022/07/08 04:20:30;;;;;;;;;3.00;3.00;;;;;;;;4891431;28;45328;-73
2022/07/08 04:22:55;;;;;;;;;3.33;2.67;;;;;;;;4889973;29;45289;-73
2022/07/08 04:25:21;;;;;;;;;3.33;3.00;;;;;;;;4896559;29;46418;-74
2022/07/08 04:27:46;;;;;;;;;4.33;3.67;;;;;;;;4872700;29;45392;-74
2022/07/08 04:30:11;;;;;;;;;4.00;3.00;;;;;;;;4878333;29;45399;-74
2022/07/08 04:32:36;;;;;;;;;3.33;3.00;;;;;;;;4876139;29;45488;-74
2022/07/08 04:35:02;;;;;;;;;3.67;3.33;;;;;;;;4894099;29;46488;-73
2022/07/08 04:37:27;;;;;;;;;5.33;3.00;;;;;;;;4879035;28;45390;-74
2022/07/08 04:39:53;;;;;;;;;4.00;4.00;;;;;;;;4876308;29;45270;-73
2022/07/08 04:42:18;;;;;;;;;3.33;3.33;;;;;;;;4875675;29;45525;-74
2022/07/08 04:44:43;;;;;;;;;3.33;2.00;;;;;;;;4885416;29;46652;-73
2022/07/08 04:47:08;;;;;;;;;10.33;4.00;;;;;;;;4876393;29;45342;-74
2022/07/08 04:49:34;;;;;;;;;6.00;4.00;;;;;;;;4896931;28;45209;-75
2022/07/08 04:51:59;;;;;;;;;5.00;3.67;;;;;;;;4883769;29;45566;-75
2022/07/08 04:54:24;;;;;;;;;4.00;4.00;;;;;;;;4890680;28;46348;-74
2022/07/08 04:56:49;;;;;;;;;6.00;3.00;;;;;;;;4886650;28;45206;-74
2022/07/08 04:59:14;;;;;;;;;5.00;3.67;;;;;;;;4895205;28;45439;-75
2022/07/08 05:01:40;;;;;;;;;4.33;4.00;;;;;;;;4878056;29;46187;-75
2022/07/08 05:04:05;;;;;;;;;4.00;4.00;;;;;;;;4882494;28;46745;-75
2022/07/08 05:06:30;;;;;;;;;6.00;4.00;;;;;;;;4880203;29;45356;-74
2022/07/08 05:08:55;;;;;;;;;4.67;4.67;;;;;;;;4891420;29;45337;-74
2022/07/08 05:11:20;;;;;;;;;3.00;3.00;;;;;;;;4882801;29;45276;-80
2022/07/08 05:13:46;;;;;;;;;4.67;3.00;;;;;;;;4887142;29;45386;-77
2022/07/08 05:16:11;;;;;;;;;6.00;4.67;;;;;;;;4877706;29;45664;-77
2022/07/08 05:18:36;;;;;;;;;6.33;4.33;;;;;;;;4887834;28;45584;-77
2022/07/08 05:21:01;;;;;;;;;3.33;3.33;;;;;;;;4890780;29;46035;-77
2022/07/08 05:23:27;;;;;;;;;3.00;3.00;;;;;;;;4888523;28;45450;-77
2022/07/08 05:25:52;;;;;;;;;3.00;3.00;;;;;;;;4893900;28;45437;-78
2022/07/08 05:28:17;;;;;;;;;7.00;4.33;;;;;;;;4877376;29;45399;-75
2022/07/08 05:30:42;;;;;;;;;5.00;3.67;;;;;;;;4896201;29;45435;-76
2022/07/08 05:33:07;;;;;;;;;4.33;3.00;;;;;;;;4895001;28;45549;-75
2022/07/08 05:35:33;;;;;;;;;7.00;3.00;;;;;;;;4891601;29;45331;-76
2022/07/08 05:37:58;;;;;;;;;5.67;3.33;;;;;;;;4894475;29;45387;-75
2022/07/08 05:40:23;;;;;;;;;4.33;3.00;;;;;;;;4880390;29;45784;-76
2022/07/08 05:42:48;;;;;;;;;5.33;4.00;;;;;;;;4879945;29;45362;-75
2022/07/08 05:45:14;;;;;;;;;5.00;3.67;;;;;;;;4885762;29;45355;-74
2022/07/08 05:47:39;;;;;;;;;5.00;5.00;;;;;;;;4882346;29;45578;-75
2022/07/08 05:50:05;;;;;;;;;9.00;5.00;;;;;;;;4856338;28;1202542;-75
2022/07/08 05:52:31;;;;;;;;;9.00;5.00;;;;;;;;4881587;28;45420;-75
2022/07/08 05:54:56;;;;;;;;;5.67;3.00;;;;;;;;4893750;29;46534;-75
2022/07/08 05:57:21;;;;;;;;;5.00;5.00;;;;;;;;4885215;28;44859;-75
2022/07/08 05:59:46;;;;;;;;;5.00;4.00;;;;;;;;4894901;29;45992;-76
2022/07/08 06:02:12;;;;;;;;;5.00;4.33;;;;;;;;4878355;28;46338;-76
2022/07/08 06:04:37;;;;;;;;;6.00;4.67;;;;;;;;4900893;29;45365;-74
2022/07/08 06:07:02;;;;;;;;;5.00;4.00;;;;;;;;4885900;28;45321;-75
2022/07/08 06:09:28;;;;;;;;;7.00;5.67;;;;;;;;4879337;29;45610;-75
2022/07/08 06:11:53;;;;;;;;;5.00;4.00;;;;;;;;4884548;29;46436;-74
2022/07/08 06:14:18;;;;;;;;;7.33;5.00;;;;;;;;4888549;29;45153;-75
2022/07/08 06:16:44;;;;;;;;;11.67;6.00;;;;;;;;4887793;29;45189;-74
2022/07/08 06:19:09;;;;;;;;;6.00;5.00;;;;;;;;4892620;29;45333;-75
2022/07/08 06:21:35;;;;;;;;;5.00;5.00;;;;;;;;4891314;29;47020;-74
2022/07/08 06:24:00;;;;;;;;;5.00;4.00;;;;;;;;4900239;28;45528;-74
2022/07/08 06:26:26;;;;;;;;;9.00;5.00;;;;;;;;4891949;28;45476;-75
2022/07/08 06:28:51;;;;;;;;;5.00;5.00;;;;;;;;4900372;29;45553;-75
2022/07/08 06:31:16;;;;;;;;;8.67;5.00;;;;;;;;4890984;28;45564;-75
2022/07/08 06:33:41;;;;;;;;;5.33;4.00;;;;;;;;4887524;29;45328;-75
2022/07/08 06:36:07;;;;;;;;;5.00;3.67;;;;;;;;4891135;29;45315;-75
2022/07/08 06:38:32;;;;;;;;;5.00;4.67;;;;;;;;4896472;28;45550;-75
2022/07/08 06:40:57;;;;;;;;;6.33;4.00;;;;;;;;4892396;29;45356;-76
2022/07/08 06:43:22;;;;;;;;;4.00;3.00;;;;;;;;4881394;29;45217;-75
2022/07/08 06:45:48;;;;;;;;;3.33;3.00;;;;;;;;4880017;29;45493;-74
2022/07/08 06:48:13;;;;;;;;;6.67;4.00;;;;;;;;4884870;29;45549;-73
2022/07/08 06:50:38;;;;;;;;;3.33;3.33;;;;;;;;4893762;29;45447;-74
2022/07/08 06:53:04;;;;;;;;;3.33;3.00;;;;;;;;4883819;29;45448;-74
2022/07/08 06:55:29;;;;;;;;;5.67;3.33;;;;;;;;4888837;29;45912;-75
2022/07/08 06:57:54;;;;;;;;;4.00;4.00;;;;;;;;4892064;29;45330;-77
2022/07/08 07:00:22;;;;;;;;;3.00;3.00;;;;;;;;4902760;28;46032;-76
2022/07/08 07:02:47;;;;;;;;;3.33;3.33;;;;;;;;4896927;29;45500;-75
2022/07/08 07:05:13;;;;;;;;;6.00;3.00;;;;;;;;4903431;29;45371;-76
2022/07/08 07:07:39;;;;;;;;;2.67;2.67;;;;;;;;4879442;28;45937;-75
2022/07/08 07:10:04;;;;;;;;;3.00;2.00;;;;;;;;4899227;29;46109;-76
2022/07/08 07:12:30;;;;;;;;;5.33;3.00;;;;;;;;4886749;28;45291;-77
2022/07/08 07:14:55;;;;;;;;;4.67;4.00;;;;;;;;4902030;29;45375;-77
2022/07/08 07:17:20;;;;;;;;;3.67;3.67;;;;;;;;4882890;28;45535;-77
2022/07/08 07:19:46;;;;;;;;;5.33;3.33;;;;;;;;4903146;28;46401;-76
2022/07/08 07:22:11;;;;;;;;;4.67;2.00;;;;;;;;4887109;28;45426;-75
2022/07/08 07:24:36;;;;;;;;;2.67;2.33;;;;;;;;4890448;29;45325;-75
2022/07/08 07:27:01;;;;;;;;;3.33;3.33;;;;;;;;4879793;28;45379;-75
2022/07/08 07:29:27;;;;;;;;;1.67;1.67;;;;;;;;4873134;29;46565;-75
2022/07/08 07:31:52;;;;;;;;;2.00;2.00;;;;;;;;4875376;29;45505;-76
2022/07/08 07:34:17;;;;;;;;;4.00;4.00;;;;;;;;4886399;29;45252;-75
2022/07/08 07:36:42;;;;;;;;;3.33;3.00;;;;;;;;4882264;28;45576;-75
2022/07/08 07:39:09;;;;;;;;;3.67;2.67;;;;;;;;4890163;29;45384;-75
2022/07/08 07:41:34;;;;;;;;;4.67;3.67;;;;;;;;4885248;28;45436;-74
2022/07/08 07:44:00;;;;;;;;;3.00;3.00;;;;;;;;4901396;29;45319;-73
2022/07/08 07:46:25;;;;;;;;;1.67;1.67;;;;;;;;4887569;28;45460;-74
2022/07/08 07:48:50;;;;;;;;;2.50;2.50;;;;;;;;4890120;29;45707;-75
2022/07/08 07:51:16;;;;;;;;;8.00;4.33;;;;;;;;4886670;29;45250;-75
2022/07/08 07:53:41;;;;;;;;;6.00;4.00;;;;;;;;4894802;29;45292;-75
2022/07/08 07:56:06;;;;;;;;;2.50;2.50;;;;;;;;4889562;28;45590;-74
2022/07/08 07:58:32;;;;;;;;;4.00;3.75;;;;;;;;4893787;29;45255;-75
2022/07/08 08:00:57;;;;;;;;;7.00;4.00;;;;;;;;4898360;28;45466;-75
2022/07/08 08:03:22;;;;;;;;;2.50;2.25;;;;;;;;4898210;29;45403;-74
2022/07/08 08:05:47;;;;;;;;;1.00;1.00;;;;;;;;4888394;28;45297;-74
2022/07/08 08:08:13;;;;;;;;;2.25;1.75;;;;;;;;4886449;29;45551;-75
2022/07/08 08:10:39;;;;;;;;;3.75;2.75;;;;;;;;4893495;28;45629;-75
2022/07/08 08:13:04;;;;;;;;;7.50;4.50;;;;;;;;4897479;29;45247;-77
2022/07/08 08:15:30;;;;;;;;;4.00;4.00;;;;;;;;4886741;29;45498;-76
2022/07/08 08:17:56;;;;;;;;;4.25;4.25;;;;;;;;4898880;29;45322;-75
2022/07/08 08:20:23;;;;;;;;;6.50;4.75;;;;;;;;4892590;28;45461;-75
2022/07/08 08:22:48;;;;;;;;;6.50;5.00;;;;;;;;4886480;29;45459;-75
2022/07/08 08:25:13;;;;;;;;;5.25;4.75;;;;;;;;4898382;28;45438;-77
2022/07/08 08:27:39;;;;;;;;;7.25;5.25;;;;;;;;4877377;28;45540;-78
2022/07/08 08:30:05;;;;;;;;;6.25;4.25;;;;;;;;4884979;29;45417;-77
2022/07/08 08:32:30;;;;;;;;;7.25;6.25;;;;;;;;4879475;29;45370;-78
2022/07/08 08:34:55;;;;;;;;;5.00;3.75;;;;;;;;4888641;29;45489;-77
2022/07/08 08:37:24;;;;;;;;;6.00;3.75;;;;;;;;4878275;29;46472;-78
2022/07/08 08:39:49;;;;;;;;;4.75;4.75;;;;;;;;4887643;29;45276;-78
2022/07/08 08:42:15;;;;;;;;;5.25;4.75;;;;;;;;4877391;29;45230;-79
2022/07/08 08:44:40;;;;;;;;;8.00;3.75;;;;;;;;4893130;28;45292;-77
2022/07/08 08:47:07;;;;;;;;;4.00;4.00;;;;;;;;4878584;29;45716;-77
2022/07/08 08:49:34;;;;;;;;;4.25;4.25;;;;;;;;4895383;28;45348;-76
2022/07/08 08:52:01;;;;;;;;;4.50;4.00;;;;;;;;4890063;29;45454;-78
2022/07/08 08:54:29;;;;;;;;;4.00;4.00;;;;;;;;4897297;29;45833;-77
2022/07/08 08:56:55;;;;;;;;;6.25;4.50;;;;;;;;4884267;28;46606;-76
2022/07/08 08:59:20;;;;;;;;;5.50;5.50;;;;;;;;4885704;29;45495;-77
2022/07/08 09:01:46;;;;;;;;;6.75;5.25;;;;;;;;4884300;29;45293;-77
2022/07/08 09:04:12;;;;;;;;;5.25;5.00;;;;;;;;4898239;28;45295;-78
2022/07/08 09:06:41;;;;;;;;;6.50;6.50;;;;;;;;4887006;29;45332;-76
2022/07/08 09:09:06;;;;;;;;;5.60;5.40;;;;;;;;4890195;29;45307;-77
2022/07/08 09:11:35;;;;;;;;;6.00;4.50;;;;;;;;4883795;28;45411;-79
2022/07/08 09:14:23;;;;;;;;;5.00;4.25;;;;;;;;4882989;29;45281;-79
2022/07/08 09:17:10;;;;;;;;;4.25;4.25;;;;;;;;4882735;29;45833;-79
2022/07/08 09:19:40;;;;;;;;;9.00;7.40;;;;;;;;4889216;29;45342;-80
2022/07/08 09:22:06;;;;;;;;;7.00;6.25;;;;;;;;4885991;28;45546;-79
2022/07/08 09:24:31;;;;;;;;;7.75;5.75;;;;;;;;4891015;29;45901;-80
2022/07/08 09:27:01;;;;;;;;;5.50;5.25;;;;;;;;4885290;28;46316;-79
2022/07/08 09:29:26;;;;;;;;;5.40;5.40;;;;;;;;4884145;29;45452;-79
2022/07/08 09:31:51;;;;;;;;;6.50;5.00;;;;;;;;4880223;29;45234;-79
2022/07/08 09:34:19;;;;;;;;;5.25;4.50;;;;;;;;4888949;29;45301;-80
2022/07/08 09:36:45;;;;;;;;;6.00;5.20;;;;;;;;4884892;28;45349;-80
2022/07/08 09:39:24;;;;;;;;;6.50;6.50;;;;;;;;4894222;29;45465;-82
2022/07/08 09:41:50;;;;;;;;;6.60;5.80;;;;;;;;4882729;28;45543;-81
2022/07/08 09:44:24;;;;;;;;;6.50;6.50;;;;;;;;4874219;29;45426;-80
2022/07/08 09:46:49;;;;;;;;;5.40;5.40;;;;;;;;4877579;29;46347;-81
2022/07/08 09:49:30;;;;;;;;;2.75;2.75;;;;;;;;4879430;28;45452;-80
2022/07/08 09:51:59;;;;;;;;;8.00;4.60;;;;;;;;4885452;29;45320;-81
2022/07/08 09:54:25;;;;;;;;;5.50;5.50;;;;;;;;4898231;28;45525;-80
2022/07/08 09:56:57;;;;;;;;;6.00;5.40;;;;;;;;4880130;29;47174;-80
2022/07/08 09:59:22;;;;;;;;;4.80;4.00;;;;;;;;4880329;29;45474;-81
2022/07/08 10:01:47;;;;;;;;;4.25;3.50;;;;;;;;4888881;28;45619;-80
2022/07/08 10:04:13;;;;;;;;;4.50;4.50;;;;;;;;4897031;28;45482;-79
2022/07/08 10:06:38;;;;;;;;;6.00;4.00;;;;;;;;4887401;28;46710;-80
2022/07/08 10:09:04;;;;;;;;;4.50;4.50;;;;;;;;4891532;29;45511;-81
2022/07/08 10:11:29;;;;;;;;;4.25;4.00;;;;;;;;4882626;28;45334;-81
2022/07/08 10:13:56;;;;;;;;;4.75;3.50;;;;;;;;4875884;29;45398;-81
2022/07/08 10:16:22;;;;;;;;;4.80;4.40;;;;;;;;4883891;29;48407;-80
2022/07/08 10:18:51;;;;;;;;;5.25;4.50;;;;;;;;4877439;29;45326;-81
2022/07/08 10:21:18;;;;;;;;;3.80;3.80;;;;;;;;4889996;29;45575;-80
2022/07/08 10:23:45;;;;;;;;;3.80;3.80;;;;;;;;4882083;29;45340;-82
2022/07/08 10:26:11;;;;;;;;;2.20;2.20;;;;;;;;4893502;29;46386;-78
2022/07/08 10:28:37;;;;;;;;;2.80;2.80;;;;;;;;4899220;28;45387;-78
2022/07/08 10:31:16;;;;;;;;;3.00;3.00;;;;;;;;4896996;28;45439;-77
2022/07/08 10:33:48;;;;;;;;;3.40;2.60;;;;;;;;4899661;29;45299;-79
2022/07/08 10:36:17;;;;;;;;;3.00;3.00;;;;;;;;4893911;29;45664;-78
2022/07/08 10:38:43;;;;;;;;;3.80;3.80;;;;;;;;4890599;29;45434;-78
2022/07/08 10:41:13;;;;;;;;;3.60;3.60;;;;;;;;4896045;29;45426;-78
2022/07/08 10:43:48;;;;;;;;;3.40;3.00;;;;;;;;4892585;28;45313;-80
2022/07/08 10:46:16;;;;;;;;;1.60;1.60;;;;;;;;4887792;28;46436;-77
2022/07/08 10:48:41;;;;;;;;;3.00;1.60;;;;;;;;4890261;29;45372;-77
2022/07/08 10:51:27;;;;;;;;;2.75;1.25;;;;;;;;4894127;28;45639;-79
2022/07/08 10:53:56;;;;;;;;;2.00;2.00;;;;;;;;4896106;29;45294;-79
2022/07/08 10:56:40;;;;;;;;;1.80;1.80;;;;;;;;4888750;28;46305;-79
2022/07/08 10:59:18;;;;;;;;;2.20;2.20;;;;;;;;4888069;29;45360;-79
2022/07/08 11:01:51;;;;;;;;;1.00;1.00;;;;;;;;4887347;28;45316;-78
2022/07/08 11:04:25;;;;;;;;;3.40;1.40;;;;;;;;4882209;29;45596;-82
2022/07/08 11:06:50;;;;;;;;;1.40;1.40;;;;;;;;4883251;29;46872;-81
2022/07/08 11:09:19;;;;;;;;;3.00;2.00;;;;;;;;4893255;28;45301;-76
2022/07/08 11:11:45;;;;;;;;;2.40;2.40;;;;;;;;4887022;29;45330;-75
2022/07/08 11:14:11;;;;;;;;;1.80;1.20;;;;;;;;4888449;29;45345;-77
2022/07/08 11:16:37;;;;;;;;;1.00;1.00;;;;;;;;4891063;29;45392;-77
2022/07/08 11:19:04;;;;;;;;;2.25;1.00;;;;;;;;4892610;29;45631;-79
2022/07/08 11:21:30;;;;;;;;;1.80;1.80;;;;;;;;4895888;28;45454;-80
2022/07/08 11:23:56;;;;;;;;;2.50;2.00;;;;;;;;4903661;28;45263;-78
2022/07/08 11:26:22;;;;;;;;;1.20;1.20;;;;;;;;4895032;29;47908;-78
2022/07/08 11:28:47;;;;;;;;;0.25;0.25;;;;;;;;4902527;28;45728;-77
2022/07/08 11:31:21;;;;;;;;;2.00;1.25;;;;;;;;4894559;29;45269;-77
2022/07/08 11:33:46;;;;;;;;;2.00;2.00;;;;;;;;4902398;28;45477;-78
2022/07/08 11:36:15;;;;;;;;;1.50;1.50;;;;;;;;4896382;28;45359;-73
2022/07/08 11:38:40;;;;;;;;;0.20;0.20;;;;;;;;4893831;28;45384;-78
2022/07/08 11:41:05;;;;;;;;;2.00;0.75;;;;;;;;4897701;28;45165;-80
2022/07/08 11:43:30;;;;;;;;;2.25;1.25;;;;;;;;4880037;29;45388;-78
2022/07/08 11:45:56;;;;;;;;;1.00;0.00;;;;;;;;4896492;29;46214;-79
2022/07/08 11:48:21;;;;;;;;;1.00;0.00;;;;;;;;4884137;29;45336;-76
2022/07/08 11:50:50;;;;;;;;;3.00;0.75;;;;;;;;4891644;29;45319;-76
2022/07/08 11:53:22;;;;;;;;;0.20;0.20;;;;;;;;4891932;29;46875;-75
2022/07/08 11:55:47;;;;;;;;;1.00;1.00;;;;;;;;4879030;29;46212;-75
2022/07/08 11:58:20;;;;;;;;;2.00;0.00;;;;;;;;4886605;29;45338;-76
2022/07/08 12:00:46;;;;;;;;;2.00;1.00;;;;;;;;4895075;28;45293;-75
2022/07/08 12:03:13;;;;;;;;;9.00;4.50;;;;;;;;4883919;29;45332;-76
2022/07/08 12:05:38;;;;;;;;;1.80;0.40;;;;;;;;4897161;29;46543;-75
2022/07/08 12:08:10;;;;;;;;;1.00;1.00;;;;;;;;4884004;29;45369;-75
2022/07/08 12:10:35;;;;;;;;;5.40;2.00;;;;;;;;4899910;28;45316;-76
2022/07/08 12:13:00;;;;;;;;;1.50;1.00;;;;;;;;4880416;29;45924;-75
2022/07/08 12:15:32;;;;;;;;;0.25;0.25;;;;;;;;4885502;29;46351;-77
2022/07/08 12:17:58;;;;;;;;;1.40;1.40;;;;;;;;4878456;29;45352;-76
2022/07/08 12:20:36;;;;;;;;;1.25;1.00;;;;;;;;4889467;28;45464;-76
2022/07/08 12:23:01;;;;;;;;;1.20;0.40;;;;;;;;4893261;29;45478;-76
2022/07/08 12:25:27;;;;;;;;;3.75;1.00;;;;;;;;4899155;28;45610;-76
2022/07/08 12:27:56;;;;;;;;;0.00;0.00;;;;;;;;4877647;29;45478;-76
2022/07/08 12:30:26;;;;;;;;;2.00;1.40;;;;;;;;4886464;29;45251;-76
2022/07/08 12:32:51;;;;;;;;;2.00;0.20;;;;;;;;4882784;29;45669;-75
2022/07/08 12:35:17;;;;;;;;;0.00;0.00;;;;;;;;4894443;29;48709;-76
2022/07/08 12:37:42;;;;;;;;;0.25;0.25;;;;;;;;4880515;29;45377;-76
2022/07/08 12:40:20;;;;;;;;;0.75;0.75;;;;;;;;4885189;29;45387;-76
2022/07/08 12:43:01;;;;;;;;;0.80;0.40;;;;;;;;4876848;29;45436;-76
2022/07/08 12:45:28;;;;;;;;;0.20;0.20;;;;;;;;4892867;29;48112;-76
2022/07/08 12:47:53;;;;;;;;;0.60;0.60;;;;;;;;4877188;29;45384;-77
2022/07/08 12:50:19;;;;;;;;;0.50;0.50;;;;;;;;4901148;28;45327;-76
2022/07/08 12:52:45;;;;;;;;;0.00;0.00;;;;;;;;4881399;28;45481;-78
2022/07/08 12:55:10;;;;;;;;;0.50;0.00;;;;;;;;4900925;28;46644;-78
2022/07/08 12:57:35;;;;;;;;;0.25;0.00;;;;;;;;4891166;29;45514;-78
2022/07/08 13:00:01;;;;;;;;;1.00;0.00;;;;;;;;4892860;29;45438;-78
2022/07/08 13:02:26;;;;;;;;;1.75;0.00;;;;;;;;4881092;29;46674;-82
2022/07/08 13:04:51;;;;;;;;;0.25;0.25;;;;;;;;4893717;29;45406;-78
2022/07/08 13:07:16;;;;;;;;;0.00;0.00;;;;;;;;4883777;29;45731;-78
2022/07/08 13:09:42;;;;;;;;;1.25;1.00;;;;;;;;4884859;29;45226;-78
2022/07/08 13:12:07;;;;;;;;;0.00;0.00;;;;;;;;4879509;29;46101;-78
2022/07/08 13:14:32;;;;;;;;;0.25;0.25;;;;;;;;4893069;29;45360;-79
2022/07/08 13:16:57;;;;;;;;;0.50;0.00;;;;;;;;4891273;28;45321;-78
2022/07/08 13:19:23;;;;;;;;;1.50;0.00;;;;;;;;4895662;29;45266;-79
2022/07/08 13:21:48;;;;;;;;;0.50;0.50;;;;;;;;4877756;29;45859;-79
2022/07/08 13:24:13;;;;;;;;;0.00;0.00;;;;;;;;4880766;29;46405;-84
2022/07/08 13:26:38;;;;;;;;;1.00;1.00;;;;;;;;4892254;29;45377;-80
2022/07/08 13:29:04;;;;;;;;;1.00;1.00;;;;;;;;4889201;29;45491;-78
2022/07/08 13:31:29;;;;;;;;;1.00;0.00;;;;;;;;4878545;29;45531;-79
2022/07/08 13:33:54;;;;;;;;;0.75;0.75;;;;;;;;4895712;29;45562;-78
2022/07/08 13:36:20;;;;;;;;;1.25;0.25;;;;;;;;4892114;29;45436;-78
2022/07/08 13:38:46;;;;;;;;;0.20;0.20;;;;;;;;4878564;29;45505;-77
2022/07/08 13:41:11;;;;;;;;;0.50;0.50;;;;;;;;4876435;29;45428;-82
2022/07/08 13:43:38;;;;;;;;;0.00;0.00;;;;;;;;4876947;29;45564;-80
2022/07/08 13:46:03;;;;;;;;;0.20;0.20;;;;;;;;4876141;29;45655;-82
2022/07/08 13:48:28;;;;;;;;;0.00;0.00;;;;;;;;4876925;29;45497;-80
2022/07/08 13:50:54;;;;;;;;;0.00;0.00;;;;;;;;4877748;28;45424;-80
2022/07/08 13:53:19;;;;;;;;;1.50;0.50;;;;;;;;4880126;29;45486;-79
2022/07/08 13:55:44;;;;;;;;;1.00;0.00;;;;;;;;4878987;29;45519;-80
2022/07/08 13:58:09;;;;;;;;;0.00;0.00;;;;;;;;4877033;29;45485;-81
2022/07/08 14:00:35;;;;;;;;;0.50;0.50;;;;;;;;4879669;29;45706;-81
2022/07/08 14:03:00;;;;;;;;;0.75;0.75;;;;;;;;4879326;29;45686;-82
2022/07/08 14:05:25;;;;;;;;;0.75;0.75;;;;;;;;4879742;29;46667;-82
2022/07/08 14:07:50;;;;;;;;;0.00;0.00;;;;;;;;4878840;29;45465;-82
2022/07/08 14:10:15;;;;;;;;;1.50;0.50;;;;;;;;4880605;29;45528;-87
2022/07/08 14:12:41;;;;;;;;;0.00;0.00;;;;;;;;4880492;29;48221;-86
2022/07/08 14:15:06;;;;;;;;;0.75;0.00;;;;;;;;4885577;29;45366;-83
2022/07/08 14:17:34;;;;;;;;;0.00;0.00;;;;;;;;4878720;28;45556;-81
2022/07/08 14:19:59;;;;;;;;;1.00;0.60;;;;;;;;4881171;29;46356;-83
2022/07/08 14:22:25;;;;;;;;;0.00;0.00;;;;;;;;4882718;29;47952;-82
2022/07/08 14:24:50;;;;;;;;;1.25;0.25;;;;;;;;4884060;29;45554;-81
2022/07/08 14:27:15;;;;;;;;;0.50;0.00;;;;;;;;4876559;29;45605;-81
2022/07/08 14:29:40;;;;;;;;;0.00;0.00;;;;;;;;4882175;29;45583;-84
2022/07/08 14:32:06;;;;;;;;;0.25;0.25;;;;;;;;4880341;29;46687;-82
2022/07/08 14:34:32;;;;;;;;;1.75;0.00;;;;;;;;4882671;29;45538;-81
2022/07/08 14:36:58;;;;;;;;;1.20;0.00;;;;;;;;4880129;29;45527;-83
2022/07/08 14:39:23;;;;;;;;;0.00;0.00;;;;;;;;4881141;29;45368;-83